createdAt,value
2023-05-10T00:04:10.918Z,9.24
2023-05-10T00:09:04.637Z,9.41
2023-05-10T00:13:59.087Z,9.31
2023-05-10T00:18:52.214Z,9.13
2023-05-10T00:23:45.397Z,8.67
2023-05-10T00:28:38.489Z,9.13
2023-05-10T00:33:32.942Z,7.91
2023-05-10T00:38:26.053Z,8.65
2023-05-10T00:43:19.254Z,8.87
2023-05-10T00:48:14.560Z,9.00
2023-05-10T00:53:10.321Z,8.96
2023-05-10T00:58:04.462Z,8.84
2023-05-10T01:02:57.794Z,8.87
2023-05-10T01:07:50.974Z,8.87
2023-05-10T01:12:48.781Z,8.02
2023-05-10T01:17:43.513Z,8.82
2023-05-10T01:23:12.177Z,8.13
2023-05-10T01:28:24.320Z,8.74
2023-05-10T01:33:21.662Z,7.60
2023-05-10T01:38:25.003Z,8.56
2023-05-10T01:43:24.459Z,8.43
2023-05-10T01:48:25.903Z,8.00
2023-05-10T01:53:22.305Z,6.80
2023-05-10T01:58:19.604Z,8.12
2023-05-10T02:03:14.218Z,7.93
2023-05-10T02:08:13.264Z,7.97
2023-05-10T02:13:08.182Z,7.54
2023-05-10T02:18:03.154Z,7.59
2023-05-10T02:22:59.635Z,7.86
2023-05-10T02:27:56.828Z,7.96
2023-05-10T02:32:51.985Z,8.02
2023-05-10T02:37:49.743Z,8.28
2023-05-10T02:42:46.043Z,8.26
2023-05-10T02:47:40.743Z,8.06
2023-05-10T02:52:41.692Z,7.30
2023-05-10T02:57:36.655Z,7.63
2023-05-10T03:02:31.604Z,7.53
2023-05-10T03:07:26.577Z,7.73
2023-05-10T03:12:29.270Z,7.66
2023-05-10T03:17:31.727Z,7.57
2023-05-10T03:22:32.877Z,7.51
2023-05-10T03:27:27.472Z,7.49
2023-05-10T03:32:21.984Z,7.31
2023-05-10T03:37:15.398Z,7.25
2023-05-10T03:42:13.044Z,7.44
2023-05-10T03:47:06.707Z,7.59
2023-05-10T03:52:00.222Z,6.70
2023-05-10T03:56:53.919Z,7.26
2023-05-10T04:01:50.239Z,7.32
2023-05-10T04:06:43.527Z,7.77
2023-05-10T04:11:36.843Z,7.70
2023-05-10T04:16:30.330Z,7.10
2023-05-10T04:21:24.941Z,7.98
2023-05-10T04:26:18.348Z,7.90
2023-05-10T04:31:12.671Z,7.94
2023-05-10T04:36:06.986Z,8.16
2023-05-10T04:41:08.812Z,8.16
2023-05-10T04:46:02.182Z,8.60
2023-05-10T04:50:55.362Z,8.12
2023-05-10T04:55:49.046Z,8.93
2023-05-10T05:00:43.767Z,9.01
2023-05-10T05:05:36.845Z,9.25
2023-05-10T05:10:29.900Z,9.41
2023-05-10T05:15:23.024Z,9.56
2023-05-10T05:20:25.693Z,9.56
2023-05-10T05:25:18.810Z,9.55
2023-05-10T05:30:12.597Z,9.94
2023-05-10T05:35:06.272Z,10.19
2023-05-10T05:40:02.447Z,10.32
2023-05-10T05:44:55.573Z,10.46
2023-05-10T05:49:51.828Z,10.53
2023-05-10T05:54:45.176Z,10.52
2023-05-10T05:59:42.921Z,10.43
2023-05-10T06:04:36.176Z,10.81
2023-05-10T06:09:29.425Z,10.99
2023-05-10T06:14:22.688Z,10.96
2023-05-10T06:19:17.217Z,11.37
2023-05-10T06:24:10.669Z,11.72
2023-05-10T06:29:04.128Z,12.14
2023-05-10T06:33:57.213Z,12.24
2023-05-10T06:38:52.688Z,12.20
2023-05-10T06:43:45.749Z,11.81
2023-05-10T06:48:38.990Z,12.62
2023-05-10T06:53:32.106Z,12.81
2023-05-10T06:58:26.567Z,13.06
2023-05-10T07:03:20.081Z,13.08
2023-05-10T07:08:14.421Z,13.37
2023-05-10T07:13:07.645Z,13.46
2023-05-10T07:18:02.294Z,13.75
2023-05-10T07:22:55.437Z,14.01
2023-05-10T07:27:52.242Z,14.13
2023-05-10T07:32:46.170Z,14.39
2023-05-10T07:37:43.760Z,14.53
2023-05-10T07:42:37.067Z,14.68
2023-05-10T07:47:30.323Z,14.96
2023-05-10T07:52:25.932Z,15.29
2023-05-10T07:57:20.521Z,15.35
2023-05-10T08:02:13.643Z,15.40
2023-05-10T08:07:06.861Z,15.59
2023-05-10T08:12:00.408Z,15.64
2023-05-10T08:16:54.996Z,15.86
2023-05-10T08:21:49.502Z,16.40
2023-05-10T08:26:44.516Z,16.89
2023-05-10T08:31:37.607Z,17.99
2023-05-10T08:36:33.148Z,18.89
2023-05-10T08:41:27.812Z,18.93
2023-05-10T08:46:23.121Z,19.20
2023-05-10T08:51:19.933Z,18.97
2023-05-10T08:56:14.463Z,19.45
2023-05-10T09:01:08.069Z,19.99
2023-05-10T09:06:01.199Z,20.03
2023-05-10T09:10:54.886Z,19.87
2023-05-10T09:15:50.233Z,20.26
2023-05-10T09:20:43.543Z,20.58
2023-05-10T09:25:36.848Z,20.87
2023-05-10T09:30:33.824Z,20.95
2023-05-10T09:35:33.155Z,19.96
2023-05-10T09:40:27.773Z,19.64
2023-05-10T09:45:20.926Z,19.11
2023-05-10T09:50:14.545Z,18.76
2023-05-10T09:55:10.118Z,18.82
2023-05-10T10:00:06.065Z,18.64
2023-05-10T10:05:09.183Z,18.99
2023-05-10T10:10:02.806Z,19.94
2023-05-10T10:14:58.316Z,20.74
2023-05-10T10:19:54.378Z,21.73
2023-05-10T10:24:47.719Z,22.04
2023-05-10T10:29:50.574Z,21.23
2023-05-10T10:34:45.164Z,20.18
2023-05-10T10:39:38.338Z,20.01
2023-05-10T10:44:42.685Z,20.81
2023-05-10T10:49:40.627Z,20.63
2023-05-10T10:54:35.135Z,19.67
2023-05-10T10:59:30.025Z,19.39
2023-05-10T11:04:23.322Z,20.12
2023-05-10T11:09:16.738Z,21.15
2023-05-10T11:14:11.236Z,22.40
2023-05-10T11:19:06.546Z,23.23
2023-05-10T11:24:00.851Z,23.44
2023-05-10T11:28:56.472Z,23.00
2023-05-10T11:33:53.097Z,23.50
2023-05-10T11:38:46.600Z,23.58
2023-05-10T11:43:41.041Z,23.20
2023-05-10T11:48:34.309Z,22.18
2023-05-10T11:53:30.157Z,20.99
2023-05-10T11:58:24.382Z,19.91
2023-05-10T12:03:17.985Z,19.61
2023-05-10T12:08:15.203Z,21.35
2023-05-10T12:13:14.340Z,22.18
2023-05-10T12:18:07.585Z,22.07
2023-05-10T12:23:03.125Z,23.23
2023-05-10T12:27:58.310Z,24.18
2023-05-10T12:32:53.750Z,23.61
2023-05-10T12:37:46.854Z,23.97
2023-05-10T12:42:41.080Z,25.05
2023-05-10T12:47:34.879Z,24.90
2023-05-10T12:52:29.731Z,24.31
2023-05-10T12:57:23.183Z,23.51
2023-05-10T13:02:19.173Z,23.87
2023-05-10T13:07:12.481Z,23.01
2023-05-10T13:12:09.365Z,22.53
2023-05-10T13:17:03.123Z,21.08
2023-05-10T13:21:56.198Z,20.99
2023-05-10T13:26:51.527Z,20.49
2023-05-10T13:31:46.126Z,20.88
2023-05-10T13:36:39.388Z,22.62
2023-05-10T13:41:32.510Z,23.35
2023-05-10T13:46:25.605Z,22.16
2023-05-10T13:51:20.097Z,21.06
2023-05-10T13:56:13.147Z,20.60
2023-05-10T14:01:06.965Z,21.18
2023-05-10T14:06:00.408Z,22.15
2023-05-10T14:10:55.031Z,21.81
2023-05-10T14:15:48.344Z,22.03
2023-05-10T14:20:41.605Z,23.18
2023-05-10T14:25:35.643Z,24.24
2023-05-10T14:30:30.124Z,24.15
2023-05-10T14:35:23.502Z,23.95
2023-05-10T14:40:18.219Z,22.91
2023-05-10T14:45:13.146Z,22.17
2023-05-10T14:50:08.869Z,21.33
2023-05-10T14:55:02.401Z,20.79
2023-05-10T14:59:55.779Z,20.31
2023-05-10T15:04:49.227Z,20.09
2023-05-10T15:09:44.372Z,19.71
2023-05-10T15:14:37.764Z,19.77
2023-05-10T15:19:30.895Z,19.64
2023-05-10T15:24:25.983Z,19.31
2023-05-10T15:29:21.751Z,19.27
2023-05-10T15:34:14.886Z,19.21
2023-05-10T15:39:07.904Z,19.01
2023-05-10T15:44:01.796Z,18.87
2023-05-10T15:48:57.212Z,18.74
2023-05-10T15:54:05.408Z,18.56
2023-05-10T15:58:59.927Z,18.39
2023-05-10T16:03:53.094Z,18.21
2023-05-10T16:08:47.631Z,18.02
2023-05-10T16:13:40.948Z,17.89
2023-05-10T16:18:34.187Z,17.56
2023-05-10T16:23:29.349Z,17.55
2023-05-10T16:28:23.904Z,17.29
2023-05-10T16:33:18.138Z,17.28
2023-05-10T16:38:11.286Z,17.16
2023-05-10T16:43:07.234Z,16.80
2023-05-10T16:48:01.915Z,16.99
2023-05-10T16:52:55.024Z,16.93
2023-05-10T16:57:48.215Z,16.80
2023-05-10T17:02:41.846Z,16.59
2023-05-10T17:07:36.526Z,16.69
2023-05-10T17:12:29.621Z,16.61
2023-05-10T17:17:23.637Z,16.51
2023-05-10T17:22:17.586Z,16.42
2023-05-10T17:27:12.458Z,16.25
2023-05-10T17:32:05.959Z,16.07
2023-05-10T17:36:59.257Z,16.15
2023-05-10T17:41:52.450Z,16.02
2023-05-10T17:46:46.978Z,15.80
2023-05-10T17:51:41.494Z,15.84
2023-05-10T17:56:34.769Z,15.54
2023-05-10T18:01:28.051Z,15.67
2023-05-10T18:06:22.814Z,15.54
2023-05-10T18:11:16.784Z,15.46
2023-05-10T18:16:12.800Z,14.99
2023-05-10T18:21:08.076Z,15.33
2023-05-10T18:26:03.617Z,15.13
2023-05-10T18:30:56.746Z,15.16
2023-05-10T18:35:50.095Z,14.87
2023-05-10T18:40:43.465Z,14.98
2023-05-10T18:45:39.139Z,14.57
2023-05-10T18:50:32.222Z,14.56
2023-05-10T18:55:26.917Z,14.70
2023-05-10T19:00:20.576Z,14.43
2023-05-10T19:05:16.063Z,14.52
2023-05-10T19:10:10.441Z,14.26
2023-05-10T19:15:03.686Z,14.11
2023-05-10T19:19:58.618Z,14.05
2023-05-10T19:24:53.706Z,14.17
2023-05-10T19:29:47.164Z,14.09
2023-05-10T19:34:40.413Z,13.98
2023-05-10T19:39:33.574Z,13.89
2023-05-10T19:44:28.485Z,13.84
2023-05-10T19:49:21.816Z,13.74
2023-05-10T19:54:17.137Z,13.62
2023-05-10T19:59:10.419Z,13.20
2023-05-10T20:04:04.998Z,12.84
2023-05-10T20:08:58.151Z,13.30
2023-05-10T20:13:51.319Z,13.02
2023-05-10T20:18:45.173Z,12.86
2023-05-10T20:23:39.657Z,12.94
2023-05-10T20:28:32.795Z,12.85
2023-05-10T20:33:28.778Z,12.16
2023-05-10T20:38:23.842Z,12.65
2023-05-10T20:43:18.877Z,12.53
2023-05-10T20:48:12.128Z,12.36
2023-05-10T20:53:05.345Z,12.18
2023-05-10T20:57:58.702Z,12.07
2023-05-10T21:02:53.292Z,11.81
2023-05-10T21:07:46.496Z,11.58
2023-05-10T21:12:39.663Z,11.81
2023-05-10T21:17:32.834Z,11.54
2023-05-10T21:22:29.011Z,11.66
2023-05-10T21:27:24.447Z,11.38
2023-05-10T21:32:17.556Z,10.96
2023-05-10T21:37:10.732Z,11.54
2023-05-10T21:42:06.390Z,11.05
2023-05-10T21:47:02.226Z,11.51
2023-05-10T21:51:55.252Z,11.49
2023-05-10T21:56:49.160Z,11.44
2023-05-10T22:01:49.721Z,11.18
2023-05-10T22:06:45.520Z,11.06
2023-05-10T22:11:38.557Z,10.99
2023-05-10T22:16:31.689Z,11.02
2023-05-10T22:21:28.915Z,10.94
2023-05-10T22:26:24.638Z,10.86
2023-05-10T22:31:17.839Z,10.91
2023-05-10T22:36:10.966Z,11.01
2023-05-10T22:41:05.541Z,11.06
2023-05-10T22:46:01.222Z,11.11
2023-05-10T22:50:54.356Z,11.14
2023-05-10T22:55:48.272Z,11.15
2023-05-10T23:00:42.811Z,11.02
2023-05-10T23:05:36.082Z,11.14
2023-05-10T23:10:31.533Z,11.11
2023-05-10T23:15:25.023Z,10.92
2023-05-10T23:20:19.893Z,10.93
2023-05-10T23:25:13.303Z,10.64
2023-05-10T23:30:07.642Z,10.78
2023-05-10T23:35:00.927Z,10.69
2023-05-10T23:39:55.436Z,10.59
2023-05-10T23:44:48.502Z,10.53
2023-05-10T23:49:42.272Z,10.39
2023-05-10T23:54:35.429Z,9.99
2023-05-10T23:59:30.031Z,10.11
